sensor_id;sensor_type;location;lat;lon;timestamp;temperature;humidity
29575;DHT22;16507;51.046;6.406;2022-12-07T00:01:13;4.10;99.90
29575;DHT22;16507;51.046;6.406;2022-12-07T00:03:40;4.30;99.90
29575;DHT22;16507;51.046;6.406;2022-12-07T00:06:08;4.40;99.90
29575;DHT22;16507;51.046;6.406;2022-12-07T00:08:35;4.50;99.90
29575;DHT22;16507;51.046;6.406;2022-12-07T00:11:02;4.40;99.90
29575;DHT22;16507;51.046;6.406;2022-12-07T00:13:30;4.30;99.90
29575;DHT22;16507;51.046;6.406;2022-12-07T00:15:55;4.70;99.90
29575;DHT22;16507;51.046;6.406;2022-12-07T00:18:21;4.70;99.90
29575;DHT22;16507;51.046;6.406;2022-12-07T00:20:46;4.60;99.90
29575;DHT22;16507;51.046;6.406;2022-12-07T00:23:12;4.20;99.90
29575;DHT22;16507;51.046;6.406;2022-12-07T00:25:38;4.50;99.90
29575;DHT22;16507;51.046;6.406;2022-12-07T00:28:03;4.30;99.90
29575;DHT22;16507;51.046;6.406;2022-12-07T00:30:29;4.50;99.90
29575;DHT22;16507;51.046;6.406;2022-12-07T00:32:55;4.30;99.90
29575;DHT22;16507;51.046;6.406;2022-12-07T00:35:20;4.30;99.90
29575;DHT22;16507;51.046;6.406;2022-12-07T00:37:46;4.20;99.90
29575;DHT22;16507;51.046;6.406;2022-12-07T00:40:12;4.40;99.90
29575;DHT22;16507;51.046;6.406;2022-12-07T00:42:37;4.60;99.90
29575;DHT22;16507;51.046;6.406;2022-12-07T00:45:03;4.30;99.90
29575;DHT22;16507;51.046;6.406;2022-12-07T00:47:29;4.40;99.90
29575;DHT22;16507;51.046;6.406;2022-12-07T00:49:54;4.30;99.90
29575;DHT22;16507;51.046;6.406;2022-12-07T00:52:20;4.20;99.90
29575;DHT22;16507;51.046;6.406;2022-12-07T00:54:45;4.60;99.90
29575;DHT22;16507;51.046;6.406;2022-12-07T00:57:11;4.50;99.90
29575;DHT22;16507;51.046;6.406;2022-12-07T00:59:36;4.50;99.90
29575;DHT22;16507;51.046;6.406;2022-12-07T01:02:02;4.30;99.90
29575;DHT22;16507;51.046;6.406;2022-12-07T01:04:28;4.40;99.90
29575;DHT22;16507;51.046;6.406;2022-12-07T01:06:53;4.40;99.90
29575;DHT22;16507;51.046;6.406;2022-12-07T01:09:19;4.70;99.90
29575;DHT22;16507;51.046;6.406;2022-12-07T01:11:44;4.50;99.90
29575;DHT22;16507;51.046;6.406;2022-12-07T01:14:10;4.40;99.90
29575;DHT22;16507;51.046;6.406;2022-12-07T01:16:35;4.30;99.90
29575;DHT22;16507;51.046;6.406;2022-12-07T01:19:02;4.60;99.90
29575;DHT22;16507;51.046;6.406;2022-12-07T01:21:31;4.50;99.90
29575;DHT22;16507;51.046;6.406;2022-12-07T01:24:01;4.40;99.90
29575;DHT22;16507;51.046;6.406;2022-12-07T01:26:27;4.60;99.90
29575;DHT22;16507;51.046;6.406;2022-12-07T01:28:53;4.50;99.90
29575;DHT22;16507;51.046;6.406;2022-12-07T01:31:22;4.60;99.90
29575;DHT22;16507;51.046;6.406;2022-12-07T01:33:50;4.70;99.90
29575;DHT22;16507;51.046;6.406;2022-12-07T01:36:27;4.40;99.90
29575;DHT22;16507;51.046;6.406;2022-12-07T01:39:02;4.30;99.90
29575;DHT22;16507;51.046;6.406;2022-12-07T01:41:30;4.50;99.90
29575;DHT22;16507;51.046;6.406;2022-12-07T01:44:10;4.40;99.90
29575;DHT22;16507;51.046;6.406;2022-12-07T01:46:36;4.70;99.90
29575;DHT22;16507;51.046;6.406;2022-12-07T01:49:05;4.40;99.90
29575;DHT22;16507;51.046;6.406;2022-12-07T01:51:31;4.60;99.90
29575;DHT22;16507;51.046;6.406;2022-12-07T01:53:57;4.70;99.90
29575;DHT22;16507;51.046;6.406;2022-12-07T01:56:25;4.40;99.90
29575;DHT22;16507;51.046;6.406;2022-12-07T01:58:52;4.30;99.90
29575;DHT22;16507;51.046;6.406;2022-12-07T02:01:20;4.40;99.90
29575;DHT22;16507;51.046;6.406;2022-12-07T02:03:46;4.30;99.90
29575;DHT22;16507;51.046;6.406;2022-12-07T02:06:15;4.40;99.90
29575;DHT22;16507;51.046;6.406;2022-12-07T02:08:42;4.40;99.90
29575;DHT22;16507;51.046;6.406;2022-12-07T02:11:09;4.30;99.90
29575;DHT22;16507;51.046;6.406;2022-12-07T02:13:38;4.60;99.90
29575;DHT22;16507;51.046;6.406;2022-12-07T02:24:24;4.30;99.90
29575;DHT22;16507;51.046;6.406;2022-12-07T02:29:54;4.40;99.90
29575;DHT22;16507;51.046;6.406;2022-12-07T02:35:27;4.60;99.90
29575;DHT22;16507;51.046;6.406;2022-12-07T02:41:10;4.40;99.90
29575;DHT22;16507;51.046;6.406;2022-12-07T02:43:45;4.80;99.90
29575;DHT22;16507;51.046;6.406;2022-12-07T02:46:14;4.60;99.90
29575;DHT22;16507;51.046;6.406;2022-12-07T02:48:43;4.50;99.90
29575;DHT22;16507;51.046;6.406;2022-12-07T02:51:09;4.50;99.90
29575;DHT22;16507;51.046;6.406;2022-12-07T02:53:37;4.60;99.90
29575;DHT22;16507;51.046;6.406;2022-12-07T03:10:36;4.80;99.90
29575;DHT22;16507;51.046;6.406;2022-12-07T03:16:21;4.30;99.90
29575;DHT22;16507;51.046;6.406;2022-12-07T03:18:57;4.40;99.90
29575;DHT22;16507;51.046;6.406;2022-12-07T03:21:29;4.80;99.90
29575;DHT22;16507;51.046;6.406;2022-12-07T03:23:59;4.50;99.90
29575;DHT22;16507;51.046;6.406;2022-12-07T03:26:32;4.50;99.90
29575;DHT22;16507;51.046;6.406;2022-12-07T03:29:05;4.60;99.90
29575;DHT22;16507;51.046;6.406;2022-12-07T03:31:33;4.30;99.90
29575;DHT22;16507;51.046;6.406;2022-12-07T03:34:26;4.60;99.90
29575;DHT22;16507;51.046;6.406;2022-12-07T03:37:17;4.70;99.90
29575;DHT22;16507;51.046;6.406;2022-12-07T03:42:12;4.80;99.90
29575;DHT22;16507;51.046;6.406;2022-12-07T03:44:38;4.60;99.90
29575;DHT22;16507;51.046;6.406;2022-12-07T03:47:12;4.30;99.90
29575;DHT22;16507;51.046;6.406;2022-12-07T03:49:47;4.50;99.90
29575;DHT22;16507;51.046;6.406;2022-12-07T03:52:37;4.40;99.90
29575;DHT22;16507;51.046;6.406;2022-12-07T03:55:25;4.60;99.90
29575;DHT22;16507;51.046;6.406;2022-12-07T03:57:56;4.40;99.90
29575;DHT22;16507;51.046;6.406;2022-12-07T04:00:23;4.20;99.90
29575;DHT22;16507;51.046;6.406;2022-12-07T04:02:51;4.30;99.90
29575;DHT22;16507;51.046;6.406;2022-12-07T04:05:17;4.60;99.90
29575;DHT22;16507;51.046;6.406;2022-12-07T04:07:43;4.50;99.90
29575;DHT22;16507;51.046;6.406;2022-12-07T04:10:09;4.50;99.90
29575;DHT22;16507;51.046;6.406;2022-12-07T04:12:35;4.20;99.90
29575;DHT22;16507;51.046;6.406;2022-12-07T04:15:01;4.20;99.90
29575;DHT22;16507;51.046;6.406;2022-12-07T04:17:26;4.60;99.90
29575;DHT22;16507;51.046;6.406;2022-12-07T04:19:52;4.40;99.90
29575;DHT22;16507;51.046;6.406;2022-12-07T04:22:17;4.50;99.90
29575;DHT22;16507;51.046;6.406;2022-12-07T04:24:43;3.90;99.90
29575;DHT22;16507;51.046;6.406;2022-12-07T04:27:09;4.20;99.90
29575;DHT22;16507;51.046;6.406;2022-12-07T04:29:34;3.80;99.90
29575;DHT22;16507;51.046;6.406;2022-12-07T04:32:00;4.20;99.90
29575;DHT22;16507;51.046;6.406;2022-12-07T04:34:25;4.20;99.90
29575;DHT22;16507;51.046;6.406;2022-12-07T04:36:51;3.70;99.90
29575;DHT22;16507;51.046;6.406;2022-12-07T04:39:30;4.30;99.90
29575;DHT22;16507;51.046;6.406;2022-12-07T04:41:57;4.30;99.90
29575;DHT22;16507;51.046;6.406;2022-12-07T04:44:24;4.00;99.90
29575;DHT22;16507;51.046;6.406;2022-12-07T04:46:51;4.10;99.90
29575;DHT22;16507;51.046;6.406;2022-12-07T04:49:17;4.10;99.90
29575;DHT22;16507;51.046;6.406;2022-12-07T04:51:44;3.90;99.90
29575;DHT22;16507;51.046;6.406;2022-12-07T04:54:10;4.40;99.90
29575;DHT22;16507;51.046;6.406;2022-12-07T04:56:37;3.90;99.90
29575;DHT22;16507;51.046;6.406;2022-12-07T04:59:03;3.90;99.90
29575;DHT22;16507;51.046;6.406;2022-12-07T05:01:29;3.90;99.90
29575;DHT22;16507;51.046;6.406;2022-12-07T05:03:55;4.10;99.90
29575;DHT22;16507;51.046;6.406;2022-12-07T05:06:20;3.90;99.90
29575;DHT22;16507;51.046;6.406;2022-12-07T05:08:46;4.00;99.90
29575;DHT22;16507;51.046;6.406;2022-12-07T05:11:12;4.00;99.90
29575;DHT22;16507;51.046;6.406;2022-12-07T05:13:58;3.90;99.90
29575;DHT22;16507;51.046;6.406;2022-12-07T05:16:24;4.40;99.90
29575;DHT22;16507;51.046;6.406;2022-12-07T05:18:51;3.80;99.90
29575;DHT22;16507;51.046;6.406;2022-12-07T05:21:16;3.80;99.90
29575;DHT22;16507;51.046;6.406;2022-12-07T05:23:42;4.20;99.90
29575;DHT22;16507;51.046;6.406;2022-12-07T05:26:07;4.40;99.90
29575;DHT22;16507;51.046;6.406;2022-12-07T05:28:33;3.90;99.90
29575;DHT22;16507;51.046;6.406;2022-12-07T05:30:59;3.90;99.90
29575;DHT22;16507;51.046;6.406;2022-12-07T05:33:24;3.80;99.90
29575;DHT22;16507;51.046;6.406;2022-12-07T05:35:50;4.40;99.90
29575;DHT22;16507;51.046;6.406;2022-12-07T05:38:15;4.20;99.90
29575;DHT22;16507;51.046;6.406;2022-12-07T05:40:41;3.90;99.90
29575;DHT22;16507;51.046;6.406;2022-12-07T05:43:06;4.10;99.90
29575;DHT22;16507;51.046;6.406;2022-12-07T05:45:32;4.10;99.90
29575;DHT22;16507;51.046;6.406;2022-12-07T05:47:58;3.90;99.90
29575;DHT22;16507;51.046;6.406;2022-12-07T05:50:23;4.20;99.90
29575;DHT22;16507;51.046;6.406;2022-12-07T05:52:49;4.30;99.90
29575;DHT22;16507;51.046;6.406;2022-12-07T05:55:14;4.10;99.90
29575;DHT22;16507;51.046;6.406;2022-12-07T05:57:40;3.90;99.90
29575;DHT22;16507;51.046;6.406;2022-12-07T06:00:26;4.00;99.90
29575;DHT22;16507;51.046;6.406;2022-12-07T06:02:51;4.20;99.90
29575;DHT22;16507;51.046;6.406;2022-12-07T06:05:17;4.10;99.90
29575;DHT22;16507;51.046;6.406;2022-12-07T06:07:42;4.10;99.90
29575;DHT22;16507;51.046;6.406;2022-12-07T06:10:08;3.80;99.90
29575;DHT22;16507;51.046;6.406;2022-12-07T06:12:34;3.80;99.90
29575;DHT22;16507;51.046;6.406;2022-12-07T06:15:00;4.10;99.90
29575;DHT22;16507;51.046;6.406;2022-12-07T06:17:25;3.90;99.90
29575;DHT22;16507;51.046;6.406;2022-12-07T06:19:51;4.10;99.90
29575;DHT22;16507;51.046;6.406;2022-12-07T06:22:17;4.20;99.90
29575;DHT22;16507;51.046;6.406;2022-12-07T06:24:43;4.40;99.90
29575;DHT22;16507;51.046;6.406;2022-12-07T06:27:09;3.80;99.90
29575;DHT22;16507;51.046;6.406;2022-12-07T06:29:35;4.30;99.90
29575;DHT22;16507;51.046;6.406;2022-12-07T06:32:00;4.00;99.90
29575;DHT22;16507;51.046;6.406;2022-12-07T06:34:27;4.20;99.90
29575;DHT22;16507;51.046;6.406;2022-12-07T06:36:53;4.10;99.90
29575;DHT22;16507;51.046;6.406;2022-12-07T06:39:26;4.20;99.90
29575;DHT22;16507;51.046;6.406;2022-12-07T06:41:52;4.20;99.90
29575;DHT22;16507;51.046;6.406;2022-12-07T06:44:19;4.20;99.90
29575;DHT22;16507;51.046;6.406;2022-12-07T06:46:45;4.40;99.90
29575;DHT22;16507;51.046;6.406;2022-12-07T06:49:11;4.40;99.90
29575;DHT22;16507;51.046;6.406;2022-12-07T06:51:37;4.30;99.90
29575;DHT22;16507;51.046;6.406;2022-12-07T06:54:07;4.40;99.90
29575;DHT22;16507;51.046;6.406;2022-12-07T06:56:32;3.80;99.90
29575;DHT22;16507;51.046;6.406;2022-12-07T06:58:58;4.20;99.90
29575;DHT22;16507;51.046;6.406;2022-12-07T07:01:24;4.10;99.90
29575;DHT22;16507;51.046;6.406;2022-12-07T07:03:49;4.10;99.90
29575;DHT22;16507;51.046;6.406;2022-12-07T07:06:15;4.10;99.90
29575;DHT22;16507;51.046;6.406;2022-12-07T07:08:41;3.70;99.90
29575;DHT22;16507;51.046;6.406;2022-12-07T07:11:08;3.90;99.90
29575;DHT22;16507;51.046;6.406;2022-12-07T07:13:34;4.10;99.90
29575;DHT22;16507;51.046;6.406;2022-12-07T07:16:00;3.90;99.90
29575;DHT22;16507;51.046;6.406;2022-12-07T07:18:25;3.90;99.90
29575;DHT22;16507;51.046;6.406;2022-12-07T07:20:52;3.70;99.90
29575;DHT22;16507;51.046;6.406;2022-12-07T07:23:18;3.70;99.90
29575;DHT22;16507;51.046;6.406;2022-12-07T07:25:45;3.80;99.90
29575;DHT22;16507;51.046;6.406;2022-12-07T07:28:10;3.30;99.90
29575;DHT22;16507;51.046;6.406;2022-12-07T07:30:36;4.00;99.90
29575;DHT22;16507;51.046;6.406;2022-12-07T07:33:03;3.20;99.90
29575;DHT22;16507;51.046;6.406;2022-12-07T07:35:29;3.70;99.90
29575;DHT22;16507;51.046;6.406;2022-12-07T07:37:55;4.00;99.90
29575;DHT22;16507;51.046;6.406;2022-12-07T07:40:21;4.10;99.90
29575;DHT22;16507;51.046;6.406;2022-12-07T07:42:51;3.70;99.90
29575;DHT22;16507;51.046;6.406;2022-12-07T07:45:18;4.10;99.90
29575;DHT22;16507;51.046;6.406;2022-12-07T07:47:43;3.70;99.90
29575;DHT22;16507;51.046;6.406;2022-12-07T07:50:09;4.20;99.90
29575;DHT22;16507;51.046;6.406;2022-12-07T07:52:35;3.60;99.90
29575;DHT22;16507;51.046;6.406;2022-12-07T07:55:00;4.20;99.90
29575;DHT22;16507;51.046;6.406;2022-12-07T07:57:26;4.00;99.90
29575;DHT22;16507;51.046;6.406;2022-12-07T07:59:52;3.70;99.90
29575;DHT22;16507;51.046;6.406;2022-12-07T08:02:24;3.70;99.90
29575;DHT22;16507;51.046;6.406;2022-12-07T08:04:50;4.00;99.90
29575;DHT22;16507;51.046;6.406;2022-12-07T08:07:15;4.10;99.90
29575;DHT22;16507;51.046;6.406;2022-12-07T08:09:41;4.20;99.90
29575;DHT22;16507;51.046;6.406;2022-12-07T08:12:07;4.10;99.90
29575;DHT22;16507;51.046;6.406;2022-12-07T08:14:33;4.00;99.90
29575;DHT22;16507;51.046;6.406;2022-12-07T08:16:59;4.50;99.90
29575;DHT22;16507;51.046;6.406;2022-12-07T08:19:25;4.20;99.90
29575;DHT22;16507;51.046;6.406;2022-12-07T08:21:51;4.00;99.90
29575;DHT22;16507;51.046;6.406;2022-12-07T08:24:17;4.40;99.90
29575;DHT22;16507;51.046;6.406;2022-12-07T08:26:42;4.60;99.90
29575;DHT22;16507;51.046;6.406;2022-12-07T08:29:08;4.40;99.90
29575;DHT22;16507;51.046;6.406;2022-12-07T08:31:34;4.40;99.90
29575;DHT22;16507;51.046;6.406;2022-12-07T08:34:00;4.00;99.90
29575;DHT22;16507;51.046;6.406;2022-12-07T08:36:25;4.50;99.90
29575;DHT22;16507;51.046;6.406;2022-12-07T10:20:16;5.50;99.90
29575;DHT22;16507;51.046;6.406;2022-12-07T10:23:00;5.70;99.90
29575;DHT22;16507;51.046;6.406;2022-12-07T10:25:32;5.70;99.90
29575;DHT22;16507;51.046;6.406;2022-12-07T10:28:02;5.70;99.90
29575;DHT22;16507;51.046;6.406;2022-12-07T10:30:29;5.70;99.90
29575;DHT22;16507;51.046;6.406;2022-12-07T10:32:55;5.70;99.90
29575;DHT22;16507;51.046;6.406;2022-12-07T10:37:52;5.60;99.90
29575;DHT22;16507;51.046;6.406;2022-12-07T10:40:29;5.70;99.90
29575;DHT22;16507;51.046;6.406;2022-12-07T10:43:15;5.60;99.90
29575;DHT22;16507;51.046;6.406;2022-12-07T11:00:24;6.00;99.90
29575;DHT22;16507;51.046;6.406;2022-12-07T11:10:45;6.50;99.90
29575;DHT22;16507;51.046;6.406;2022-12-07T11:13:24;6.60;99.90
29575;DHT22;16507;51.046;6.406;2022-12-07T11:16:16;6.90;99.90
29575;DHT22;16507;51.046;6.406;2022-12-07T11:21:35;6.70;99.90
29575;DHT22;16507;51.046;6.406;2022-12-07T11:26:42;6.70;99.90
29575;DHT22;16507;51.046;6.406;2022-12-07T11:29:35;6.60;99.90
29575;DHT22;16507;51.046;6.406;2022-12-07T11:37:19;6.90;99.90
29575;DHT22;16507;51.046;6.406;2022-12-07T11:39:50;7.00;99.90
29575;DHT22;16507;51.046;6.406;2022-12-07T11:42:25;7.10;99.90
29575;DHT22;16507;51.046;6.406;2022-12-07T11:47:47;7.10;99.90
29575;DHT22;16507;51.046;6.406;2022-12-07T11:56:08;7.20;99.90
29575;DHT22;16507;51.046;6.406;2022-12-07T12:06:39;6.90;99.90
29575;DHT22;16507;51.046;6.406;2022-12-07T12:14:40;6.50;99.90
29575;DHT22;16507;51.046;6.406;2022-12-07T12:20:17;6.50;99.90
29575;DHT22;16507;51.046;6.406;2022-12-07T12:23:17;6.60;99.90
29575;DHT22;16507;51.046;6.406;2022-12-07T12:25:48;6.60;99.90
29575;DHT22;16507;51.046;6.406;2022-12-07T12:33:31;6.30;99.90
29575;DHT22;16507;51.046;6.406;2022-12-07T12:39:21;6.30;99.90
29575;DHT22;16507;51.046;6.406;2022-12-07T12:47:03;6.60;99.90
29575;DHT22;16507;51.046;6.406;2022-12-07T12:49:35;6.60;99.90
29575;DHT22;16507;51.046;6.406;2022-12-07T12:57:34;6.50;99.90
29575;DHT22;16507;51.046;6.406;2022-12-07T13:00:12;6.50;99.90
29575;DHT22;16507;51.046;6.406;2022-12-07T13:02:52;6.50;99.90
29575;DHT22;16507;51.046;6.406;2022-12-07T13:05:23;6.60;99.90
29575;DHT22;16507;51.046;6.406;2022-12-07T13:07:54;6.50;99.90
29575;DHT22;16507;51.046;6.406;2022-12-07T13:18:36;7.80;99.90
29575;DHT22;16507;51.046;6.406;2022-12-07T13:23:51;7.10;99.90
29575;DHT22;16507;51.046;6.406;2022-12-07T13:26:42;6.90;99.90
29575;DHT22;16507;51.046;6.406;2022-12-07T13:29:19;6.80;99.90
29575;DHT22;16507;51.046;6.406;2022-12-07T13:31:55;6.80;99.90
29575;DHT22;16507;51.046;6.406;2022-12-07T13:34:36;6.70;99.90
29575;DHT22;16507;51.046;6.406;2022-12-07T13:37:15;6.60;99.90
29575;DHT22;16507;51.046;6.406;2022-12-07T13:39:48;6.60;99.90
29575;DHT22;16507;51.046;6.406;2022-12-07T13:42:34;6.50;99.90
29575;DHT22;16507;51.046;6.406;2022-12-07T13:45:20;6.50;99.90
29575;DHT22;16507;51.046;6.406;2022-12-07T13:47:53;6.50;99.90
29575;DHT22;16507;51.046;6.406;2022-12-07T13:50:24;6.40;99.90
29575;DHT22;16507;51.046;6.406;2022-12-07T13:52:55;6.50;99.90
29575;DHT22;16507;51.046;6.406;2022-12-07T13:55:20;6.40;99.90
29575;DHT22;16507;51.046;6.406;2022-12-07T13:57:50;6.40;99.90
29575;DHT22;16507;51.046;6.406;2022-12-07T14:03:22;6.30;99.90
29575;DHT22;16507;51.046;6.406;2022-12-07T14:06:07;6.20;99.90
29575;DHT22;16507;51.046;6.406;2022-12-07T14:08:33;6.20;99.90
29575;DHT22;16507;51.046;6.406;2022-12-07T14:10:59;6.20;99.90
29575;DHT22;16507;51.046;6.406;2022-12-07T14:13:37;6.20;99.90
29575;DHT22;16507;51.046;6.406;2022-12-07T14:18:45;6.10;99.90
29575;DHT22;16507;51.046;6.406;2022-12-07T14:21:19;6.10;99.90
29575;DHT22;16507;51.046;6.406;2022-12-07T14:24:09;6.10;99.90
29575;DHT22;16507;51.046;6.406;2022-12-07T14:26:36;6.10;99.90
29575;DHT22;16507;51.046;6.406;2022-12-07T14:31:51;5.70;99.90
29575;DHT22;16507;51.046;6.406;2022-12-07T14:34:16;5.70;99.90
29575;DHT22;16507;51.046;6.406;2022-12-07T14:36:44;5.70;99.90
29575;DHT22;16507;51.046;6.406;2022-12-07T14:39:10;5.70;99.90
29575;DHT22;16507;51.046;6.406;2022-12-07T14:41:35;5.40;99.90
29575;DHT22;16507;51.046;6.406;2022-12-07T14:44:21;5.30;99.90
29575;DHT22;16507;51.046;6.406;2022-12-07T14:46:48;5.20;99.90
29575;DHT22;16507;51.046;6.406;2022-12-07T14:49:15;5.10;99.90
29575;DHT22;16507;51.046;6.406;2022-12-07T14:51:42;5.10;99.90
29575;DHT22;16507;51.046;6.406;2022-12-07T14:54:15;5.00;99.90
29575;DHT22;16507;51.046;6.406;2022-12-07T14:56:41;5.00;99.90
29575;DHT22;16507;51.046;6.406;2022-12-07T14:59:09;5.00;99.90
29575;DHT22;16507;51.046;6.406;2022-12-07T15:01:35;4.80;99.90
29575;DHT22;16507;51.046;6.406;2022-12-07T15:04:00;4.80;99.90
29575;DHT22;16507;51.046;6.406;2022-12-07T15:06:26;4.70;99.90
29575;DHT22;16507;51.046;6.406;2022-12-07T15:08:51;4.70;99.90
29575;DHT22;16507;51.046;6.406;2022-12-07T15:11:18;4.60;99.90
29575;DHT22;16507;51.046;6.406;2022-12-07T15:13:43;4.60;99.90
29575;DHT22;16507;51.046;6.406;2022-12-07T15:16:27;4.40;99.90
29575;DHT22;16507;51.046;6.406;2022-12-07T15:18:53;4.40;99.90
29575;DHT22;16507;51.046;6.406;2022-12-07T15:21:19;4.40;99.90
29575;DHT22;16507;51.046;6.406;2022-12-07T15:23:46;4.30;99.90
29575;DHT22;16507;51.046;6.406;2022-12-07T15:26:13;4.00;99.90
29575;DHT22;16507;51.046;6.406;2022-12-07T15:28:40;4.10;99.90
29575;DHT22;16507;51.046;6.406;2022-12-07T15:31:16;3.90;99.90
29575;DHT22;16507;51.046;6.406;2022-12-07T15:33:43;3.90;99.90
29575;DHT22;16507;51.046;6.406;2022-12-07T15:36:19;4.00;99.90
29575;DHT22;16507;51.046;6.406;2022-12-07T15:38:46;3.80;99.90
29575;DHT22;16507;51.046;6.406;2022-12-07T15:41:12;4.00;99.90
29575;DHT22;16507;51.046;6.406;2022-12-07T15:43:38;4.00;99.90
29575;DHT22;16507;51.046;6.406;2022-12-07T15:46:22;4.10;99.90
29575;DHT22;16507;51.046;6.406;2022-12-07T15:48:47;4.00;99.90
29575;DHT22;16507;51.046;6.406;2022-12-07T15:51:13;4.40;99.90
29575;DHT22;16507;51.046;6.406;2022-12-07T15:53:38;4.50;99.90
29575;DHT22;16507;51.046;6.406;2022-12-07T15:56:08;4.30;99.90
29575;DHT22;16507;51.046;6.406;2022-12-07T15:58:34;4.40;99.90
29575;DHT22;16507;51.046;6.406;2022-12-07T16:00:59;4.30;99.90
29575;DHT22;16507;51.046;6.406;2022-12-07T16:03:26;4.50;99.90
29575;DHT22;16507;51.046;6.406;2022-12-07T16:05:52;4.50;99.90
29575;DHT22;16507;51.046;6.406;2022-12-07T16:08:18;4.40;99.90
29575;DHT22;16507;51.046;6.406;2022-12-07T16:10:44;4.60;99.90
29575;DHT22;16507;51.046;6.406;2022-12-07T16:13:10;4.40;99.90
29575;DHT22;16507;51.046;6.406;2022-12-07T16:15:40;4.50;99.90
29575;DHT22;16507;51.046;6.406;2022-12-07T16:18:05;4.40;99.90
29575;DHT22;16507;51.046;6.406;2022-12-07T16:20:31;4.60;99.90
29575;DHT22;16507;51.046;6.406;2022-12-07T16:22:57;4.50;99.90
29575;DHT22;16507;51.046;6.406;2022-12-07T16:25:22;4.60;99.90
29575;DHT22;16507;51.046;6.406;2022-12-07T16:27:48;4.50;99.90
29575;DHT22;16507;51.046;6.406;2022-12-07T16:30:14;4.40;99.90
29575;DHT22;16507;51.046;6.406;2022-12-07T16:32:41;4.50;99.90
29575;DHT22;16507;51.046;6.406;2022-12-07T16:35:08;4.60;99.90
29575;DHT22;16507;51.046;6.406;2022-12-07T16:37:34;4.50;99.90
29575;DHT22;16507;51.046;6.406;2022-12-07T16:39:59;4.40;99.90
29575;DHT22;16507;51.046;6.406;2022-12-07T16:42:25;4.50;99.90
29575;DHT22;16507;51.046;6.406;2022-12-07T16:44:51;4.60;99.90
29575;DHT22;16507;51.046;6.406;2022-12-07T16:47:17;4.50;99.90
29575;DHT22;16507;51.046;6.406;2022-12-07T16:49:43;4.60;99.90
29575;DHT22;16507;51.046;6.406;2022-12-07T16:52:08;4.40;99.90
29575;DHT22;16507;51.046;6.406;2022-12-07T16:54:35;4.60;99.90
29575;DHT22;16507;51.046;6.406;2022-12-07T16:57:01;4.40;99.90
29575;DHT22;16507;51.046;6.406;2022-12-07T16:59:26;4.40;99.90
29575;DHT22;16507;51.046;6.406;2022-12-07T17:01:52;4.70;99.90
29575;DHT22;16507;51.046;6.406;2022-12-07T17:04:18;4.60;99.90
29575;DHT22;16507;51.046;6.406;2022-12-07T17:06:43;4.60;99.90
29575;DHT22;16507;51.046;6.406;2022-12-07T17:09:09;4.70;99.90
29575;DHT22;16507;51.046;6.406;2022-12-07T17:11:35;4.70;99.90
29575;DHT22;16507;51.046;6.406;2022-12-07T17:14:01;4.70;99.90
29575;DHT22;16507;51.046;6.406;2022-12-07T17:16:46;4.70;99.90
29575;DHT22;16507;51.046;6.406;2022-12-07T17:19:14;4.50;99.90
29575;DHT22;16507;51.046;6.406;2022-12-07T17:21:40;4.70;99.90
29575;DHT22;16507;51.046;6.406;2022-12-07T17:24:08;4.60;99.90
29575;DHT22;16507;51.046;6.406;2022-12-07T17:26:34;4.70;99.90
29575;DHT22;16507;51.046;6.406;2022-12-07T17:29:00;4.60;99.90
29575;DHT22;16507;51.046;6.406;2022-12-07T17:31:26;4.50;99.90
29575;DHT22;16507;51.046;6.406;2022-12-07T17:33:52;4.60;99.90
29575;DHT22;16507;51.046;6.406;2022-12-07T17:36:23;4.50;99.90
29575;DHT22;16507;51.046;6.406;2022-12-07T17:38:50;4.50;99.90
29575;DHT22;16507;51.046;6.406;2022-12-07T17:41:21;4.50;99.90
29575;DHT22;16507;51.046;6.406;2022-12-07T17:44:08;4.40;99.90
29575;DHT22;16507;51.046;6.406;2022-12-07T17:46:35;4.20;99.90
29575;DHT22;16507;51.046;6.406;2022-12-07T17:49:01;4.50;99.90
29575;DHT22;16507;51.046;6.406;2022-12-07T17:51:27;4.30;99.90
29575;DHT22;16507;51.046;6.406;2022-12-07T17:54:12;4.50;99.90
29575;DHT22;16507;51.046;6.406;2022-12-07T17:56:38;4.50;99.90
29575;DHT22;16507;51.046;6.406;2022-12-07T17:59:04;4.50;99.90
29575;DHT22;16507;51.046;6.406;2022-12-07T18:01:30;4.30;99.90
29575;DHT22;16507;51.046;6.406;2022-12-07T18:03:56;4.20;99.90
29575;DHT22;16507;51.046;6.406;2022-12-07T18:06:21;4.20;99.90
29575;DHT22;16507;51.046;6.406;2022-12-07T18:08:47;4.40;99.90
29575;DHT22;16507;51.046;6.406;2022-12-07T18:11:13;4.30;99.90
29575;DHT22;16507;51.046;6.406;2022-12-07T18:13:38;4.30;99.90
29575;DHT22;16507;51.046;6.406;2022-12-07T18:16:07;4.10;99.90
29575;DHT22;16507;51.046;6.406;2022-12-07T18:18:34;4.30;99.90
29575;DHT22;16507;51.046;6.406;2022-12-07T18:21:02;4.50;99.90
29575;DHT22;16507;51.046;6.406;2022-12-07T18:23:28;4.40;99.90
29575;DHT22;16507;51.046;6.406;2022-12-07T18:25:54;4.10;99.90
29575;DHT22;16507;51.046;6.406;2022-12-07T18:28:20;4.10;99.90
29575;DHT22;16507;51.046;6.406;2022-12-07T18:30:45;4.10;99.90
29575;DHT22;16507;51.046;6.406;2022-12-07T18:33:17;4.10;99.90
29575;DHT22;16507;51.046;6.406;2022-12-07T18:35:43;4.40;99.90
29575;DHT22;16507;51.046;6.406;2022-12-07T18:38:09;4.30;99.90
29575;DHT22;16507;51.046;6.406;2022-12-07T18:40:38;4.20;99.90
29575;DHT22;16507;51.046;6.406;2022-12-07T18:43:05;4.40;99.90
29575;DHT22;16507;51.046;6.406;2022-12-07T18:45:34;4.20;99.90
29575;DHT22;16507;51.046;6.406;2022-12-07T18:48:00;4.50;99.90
29575;DHT22;16507;51.046;6.406;2022-12-07T18:50:26;4.40;99.90
29575;DHT22;16507;51.046;6.406;2022-12-07T18:52:52;4.00;99.90
29575;DHT22;16507;51.046;6.406;2022-12-07T18:55:17;4.40;99.90
29575;DHT22;16507;51.046;6.406;2022-12-07T18:57:43;4.40;99.90
29575;DHT22;16507;51.046;6.406;2022-12-07T19:00:09;4.30;99.90
29575;DHT22;16507;51.046;6.406;2022-12-07T19:02:35;4.10;99.90
29575;DHT22;16507;51.046;6.406;2022-12-07T19:05:01;4.20;99.90
29575;DHT22;16507;51.046;6.406;2022-12-07T19:07:26;4.10;99.90
29575;DHT22;16507;51.046;6.406;2022-12-07T19:09:52;4.40;99.90
29575;DHT22;16507;51.046;6.406;2022-12-07T19:12:18;4.40;99.90
29575;DHT22;16507;51.046;6.406;2022-12-07T19:14:43;4.20;99.90
29575;DHT22;16507;51.046;6.406;2022-12-07T19:17:12;4.10;99.90
29575;DHT22;16507;51.046;6.406;2022-12-07T19:19:41;4.10;99.90
29575;DHT22;16507;51.046;6.406;2022-12-07T19:22:08;4.10;99.90
29575;DHT22;16507;51.046;6.406;2022-12-07T19:24:34;4.50;99.90
29575;DHT22;16507;51.046;6.406;2022-12-07T19:27:00;4.00;99.90
29575;DHT22;16507;51.046;6.406;2022-12-07T19:29:28;4.50;99.90
29575;DHT22;16507;51.046;6.406;2022-12-07T19:31:56;4.40;99.90
29575;DHT22;16507;51.046;6.406;2022-12-07T19:34:21;4.40;99.90
29575;DHT22;16507;51.046;6.406;2022-12-07T19:36:47;4.00;99.90
29575;DHT22;16507;51.046;6.406;2022-12-07T19:39:13;4.10;99.90
29575;DHT22;16507;51.046;6.406;2022-12-07T19:41:39;4.20;99.90
29575;DHT22;16507;51.046;6.406;2022-12-07T19:44:10;4.20;99.90
29575;DHT22;16507;51.046;6.406;2022-12-07T19:46:36;4.20;99.90
29575;DHT22;16507;51.046;6.406;2022-12-07T19:49:01;4.30;99.90
29575;DHT22;16507;51.046;6.406;2022-12-07T19:51:28;4.20;99.90